Time,TemperatureF,DewpointF,PressureIn,WindDirection,WindDirectionDegrees,WindSpeedMPH,WindSpeedGustMPH,Humidity,HourlyPrecipIn,Conditions,Clouds,dailyrainin,SolarRadiationWatts/m^2,SoftwareType,DateUTC
2013-03-09 00:21:00,31.0,26.0,-100.00,NNE,31,3.0,14.0,80,0.00,,,0.00,0.000000,,2013-03-09 07:21:00,
2013-03-09 00:32:00,31.0,26.0,-100.00,NNE,31,3.0,14.0,80,0.00,,,0.00,0.000000,,2013-03-09 07:32:00,
2013-03-09 00:42:00,31.0,26.0,-100.00,NNE,31,3.0,14.0,80,0.00,,,0.00,0.000000,,2013-03-09 07:42:00,
2013-03-09 00:51:00,31.0,26.0,-100.00,NNE,31,3.0,14.0,80,0.00,,,0.00,0.000000,,2013-03-09 07:51:00,
2013-03-09 01:22:00,30.0,25.0,-100.00,North,356,4.0,7.0,81,0.00,,,0.00,0.000000,,2013-03-09 08:22:00,
2013-03-09 01:32:00,30.0,25.0,-100.00,North,356,4.0,7.0,81,0.00,,,0.00,0.000000,,2013-03-09 08:32:00,
2013-03-09 01:41:00,30.0,25.0,-100.00,North,356,4.0,7.0,81,0.00,,,0.00,0.000000,,2013-03-09 08:41:00,
2013-03-09 01:52:00,30.0,25.0,-100.00,North,356,4.0,7.0,81,0.00,,,0.00,0.000000,,2013-03-09 08:52:00,
2013-03-09 02:21:00,27.0,23.0,-100.00,North,7,2.0,8.0,86,0.00,,,-99.99,0.000000,,2013-03-09 09:21:00,
2013-03-09 02:32:00,27.0,23.0,-100.00,North,7,2.0,8.0,86,0.00,,,-99.99,0.000000,,2013-03-09 09:32:00,
2013-03-09 02:42:00,27.0,23.0,-100.00,North,7,2.0,8.0,86,0.00,,,-99.99,0.000000,,2013-03-09 09:42:00,
2013-03-09 02:52:00,27.0,23.0,-100.00,North,7,2.0,8.0,86,0.00,,,-99.99,0.000000,,2013-03-09 09:52:00,
2013-03-09 03:21:00,28.0,24.0,-100.00,SSE,165,2.0,4.0,86,0.00,,,0.00,0.000000,,2013-03-09 10:21:00,
2013-03-09 03:31:00,28.0,24.0,-100.00,SSE,165,2.0,4.0,86,0.00,,,0.00,0.000000,,2013-03-09 10:31:00,
2013-03-09 03:42:00,28.0,24.0,-100.00,SSE,165,2.0,4.0,86,0.00,,,0.00,0.000000,,2013-03-09 10:42:00,
2013-03-09 03:52:00,28.0,24.0,-100.00,SSE,165,2.0,4.0,86,0.00,,,0.00,0.000000,,2013-03-09 10:52:00,
2013-03-09 04:21:00,30.0,25.0,-100.00,NNW,332,4.0,8.0,83,0.00,,,0.00,0.000000,,2013-03-09 11:21:00,
2013-03-09 04:32:00,30.0,25.0,-100.00,NNW,332,4.0,8.0,83,0.00,,,0.00,0.000000,,2013-03-09 11:32:00,
2013-03-09 04:42:00,30.0,25.0,-100.00,NNW,332,4.0,8.0,83,0.00,,,0.00,0.000000,,2013-03-09 11:42:00,
2013-03-09 04:52:00,30.0,25.0,-100.00,NNW,332,4.0,8.0,83,0.00,,,0.00,0.000000,,2013-03-09 11:52:00,
2013-03-09 05:21:00,29.0,25.0,-100.00,North,357,4.0,6.0,84,0.00,,,0.00,0.000000,,2013-03-09 12:21:00,
2013-03-09 05:32:00,29.0,25.0,-100.00,North,357,4.0,6.0,84,0.00,,,0.00,0.000000,,2013-03-09 12:32:00,
2013-03-09 05:42:00,29.0,25.0,-100.00,North,357,4.0,6.0,84,0.00,,,0.00,0.000000,,2013-03-09 12:42:00,
2013-03-09 05:52:00,29.0,25.0,-100.00,North,357,4.0,6.0,84,0.00,,,0.00,0.000000,,2013-03-09 12:52:00,
2013-03-09 06:21:00,29.0,24.0,-100.00,WNW,293,4.0,7.0,81,0.00,,,0.00,0.000000,,2013-03-09 13:21:00,
2013-03-09 06:32:00,29.0,24.0,-100.00,WNW,293,4.0,7.0,81,0.00,,,0.00,0.000000,,2013-03-09 13:32:00,
2013-03-09 06:42:00,29.0,24.0,-100.00,WNW,293,4.0,7.0,81,0.00,,,0.00,0.000000,,2013-03-09 13:42:00,
2013-03-09 06:52:00,29.0,24.0,-100.00,WNW,293,4.0,7.0,81,0.00,,,0.00,0.000000,,2013-03-09 13:52:00,
2013-03-09 07:21:00,24.0,22.0,-100.00,West,277,6.0,14.0,93,0.00,,,0.00,6.000000,,2013-03-09 14:21:00,
2013-03-09 07:32:00,24.0,22.0,-100.00,West,277,6.0,14.0,93,0.00,,,0.00,6.000000,,2013-03-09 14:32:00,
2013-03-09 07:42:00,24.0,22.0,-100.00,West,277,6.0,14.0,93,0.00,,,0.00,6.000000,,2013-03-09 14:42:00,
2013-03-09 07:52:00,24.0,22.0,-100.00,West,277,6.0,14.0,93,0.00,,,0.00,6.000000,,2013-03-09 14:52:00,
2013-03-09 08:22:00,25.0,24.0,-100.00,ENE,76,3.0,10.0,94,0.00,,,0.00,43.000000,,2013-03-09 15:22:00,
2013-03-09 08:32:00,25.0,24.0,-100.00,ENE,76,3.0,10.0,94,0.00,,,0.00,43.000000,,2013-03-09 15:32:00,
2013-03-09 08:42:00,25.0,24.0,-100.00,ENE,76,3.0,10.0,94,0.00,,,0.00,43.000000,,2013-03-09 15:42:00,
2013-03-09 08:52:00,25.0,24.0,-100.00,ENE,76,3.0,10.0,94,0.00,,,0.00,43.000000,,2013-03-09 15:52:00,
2013-03-09 09:21:00,27.0,26.0,-100.00,West,260,2.0,4.0,94,0.00,,,0.00,90.000000,,2013-03-09 16:21:00,
2013-03-09 09:32:00,27.0,26.0,-100.00,West,260,2.0,4.0,94,0.00,,,0.00,90.000000,,2013-03-09 16:32:00,
2013-03-09 09:42:00,27.0,26.0,-100.00,West,260,2.0,4.0,94,0.00,,,0.00,90.000000,,2013-03-09 16:42:00,
2013-03-09 09:51:00,27.0,26.0,-100.00,West,260,2.0,4.0,94,0.00,,,0.00,90.000000,,2013-03-09 16:51:00,
2013-03-09 10:22:00,31.0,28.0,-100.00,WNW,293,3.0,5.0,89,0.00,,,0.00,203.000000,,2013-03-09 17:22:00,
2013-03-09 10:32:00,31.0,28.0,-100.00,WNW,293,3.0,5.0,89,0.00,,,0.00,203.000000,,2013-03-09 17:32:00,
2013-03-09 10:42:00,31.0,28.0,-100.00,WNW,293,3.0,5.0,89,0.00,,,0.00,203.000000,,2013-03-09 17:42:00,
2013-03-09 10:52:00,31.0,28.0,-100.00,WNW,293,3.0,5.0,89,0.00,,,0.00,203.000000,,2013-03-09 17:52:00,
2013-03-09 11:21:00,37.0,26.0,-100.00,NW,312,3.0,9.0,65,0.00,,,0.00,371.000000,,2013-03-09 18:21:00,
2013-03-09 11:32:00,37.0,26.0,-100.00,NW,312,3.0,9.0,65,0.00,,,0.00,371.000000,,2013-03-09 18:32:00,
2013-03-09 11:42:00,37.0,26.0,-100.00,NW,312,3.0,9.0,65,0.00,,,0.00,371.000000,,2013-03-09 18:42:00,
2013-03-09 11:52:00,37.0,26.0,-100.00,NW,312,3.0,9.0,65,0.00,,,0.00,371.000000,,2013-03-09 18:52:00,
2013-03-09 12:22:00,47.0,13.0,-100.00,North,354,8.0,21.0,25,0.00,,,0.00,593.000000,,2013-03-09 19:22:00,
2013-03-09 12:32:00,47.0,13.0,-100.00,North,354,8.0,21.0,25,0.00,,,0.00,593.000000,,2013-03-09 19:32:00,
2013-03-09 12:42:00,47.0,13.0,-100.00,North,354,8.0,21.0,25,0.00,,,0.00,593.000000,,2013-03-09 19:42:00,
2013-03-09 12:51:00,47.0,13.0,-100.00,North,354,8.0,21.0,25,0.00,,,0.00,593.000000,,2013-03-09 19:51:00,
2013-03-09 13:22:00,49.0,13.0,-100.00,NNW,335,8.0,20.0,23,0.00,,,0.00,775.000000,,2013-03-09 20:22:00,
2013-03-09 13:32:00,49.0,13.0,-100.00,NNW,335,8.0,20.0,23,0.00,,,0.00,775.000000,,2013-03-09 20:32:00,
2013-03-09 13:42:00,49.0,13.0,-100.00,NNW,335,8.0,20.0,23,0.00,,,0.00,775.000000,,2013-03-09 20:42:00,
2013-03-09 13:52:00,49.0,13.0,-100.00,NNW,335,8.0,20.0,23,0.00,,,0.00,775.000000,,2013-03-09 20:52:00,
2013-03-09 14:22:00,47.0,15.0,-100.00,NW,324,8.0,20.0,27,0.00,,,0.00,725.000000,,2013-03-09 21:22:00,
2013-03-09 14:32:00,47.0,15.0,-100.00,NW,324,8.0,20.0,27,0.00,,,0.00,725.000000,,2013-03-09 21:32:00,
2013-03-09 14:42:00,47.0,15.0,-100.00,NW,324,8.0,20.0,27,0.00,,,0.00,725.000000,,2013-03-09 21:42:00,
2013-03-09 14:52:00,47.0,15.0,-100.00,NW,324,8.0,20.0,27,0.00,,,0.00,725.000000,,2013-03-09 21:52:00,
2013-03-09 15:21:00,46.0,14.0,-100.00,NNW,333,9.0,22.0,27,0.00,,,0.00,388.000000,,2013-03-09 22:21:00,
2013-03-09 15:32:00,46.0,14.0,-100.00,NNW,333,9.0,22.0,27,0.00,,,0.00,388.000000,,2013-03-09 22:32:00,
2013-03-09 15:42:00,46.0,14.0,-100.00,NNW,333,9.0,22.0,27,0.00,,,0.00,388.000000,,2013-03-09 22:42:00,
2013-03-09 15:51:00,46.0,14.0,-100.00,NNW,333,9.0,22.0,27,0.00,,,0.00,388.000000,,2013-03-09 22:51:00,
2013-03-09 16:21:00,44.0,12.0,-100.00,NNW,335,8.0,19.0,27,0.00,,,0.00,40.000000,,2013-03-09 23:21:00,
2013-03-09 16:32:00,44.0,12.0,-100.00,NNW,335,8.0,19.0,27,0.00,,,0.00,40.000000,,2013-03-09 23:32:00,
2013-03-09 16:42:00,44.0,12.0,-100.00,NNW,335,8.0,19.0,27,0.00,,,0.00,40.000000,,2013-03-09 23:42:00,
2013-03-09 16:52:00,44.0,12.0,-100.00,NNW,335,8.0,19.0,27,0.00,,,0.00,40.000000,,2013-03-09 23:52:00,
2013-03-09 17:22:00,39.0,9.0,-100.00,North,354,10.0,24.0,29,0.00,,,0.00,249.000000,,2013-03-10 00:22:00,
2013-03-09 17:32:00,39.0,9.0,-100.00,North,354,10.0,24.0,29,0.00,,,0.00,249.000000,,2013-03-10 00:32:00,
2013-03-09 17:42:00,39.0,9.0,-100.00,North,354,10.0,24.0,29,0.00,,,0.00,249.000000,,2013-03-10 00:42:00,
2013-03-09 17:52:00,39.0,9.0,-100.00,North,354,10.0,24.0,29,0.00,,,0.00,249.000000,,2013-03-10 00:52:00,
2013-03-09 18:21:00,34.0,8.0,-100.00,North,2,9.0,27.0,33,0.00,,,0.00,64.000000,,2013-03-10 01:21:00,
2013-03-09 18:32:00,34.0,8.0,-100.00,North,2,9.0,27.0,33,0.00,,,0.00,64.000000,,2013-03-10 01:32:00,
2013-03-09 18:41:00,34.0,8.0,-100.00,North,2,9.0,27.0,33,0.00,,,0.00,64.000000,,2013-03-10 01:41:00,
2013-03-09 18:51:00,34.0,8.0,-100.00,North,2,9.0,27.0,33,0.00,,,0.00,64.000000,,2013-03-10 01:51:00,
2013-03-09 19:22:00,33.0,10.0,-100.00,North,356,7.0,17.0,38,0.00,,,-99.99,1.000000,,2013-03-10 02:22:00,
2013-03-09 19:32:00,33.0,10.0,-100.00,North,356,7.0,17.0,38,0.00,,,-99.99,1.000000,,2013-03-10 02:32:00,
2013-03-09 19:42:00,33.0,10.0,-100.00,North,356,7.0,17.0,38,0.00,,,-99.99,1.000000,,2013-03-10 02:42:00,
2013-03-09 19:52:00,33.0,10.0,-100.00,North,356,7.0,17.0,38,0.00,,,-99.99,1.000000,,2013-03-10 02:52:00,
2013-03-09 20:11:00,32.0,12.0,-100.00,North,0,7.0,15.0,43,0.00,,,-99.99,0.000000,,2013-03-10 03:11:00,
2013-03-09 20:22:00,32.0,12.0,-100.00,North,0,7.0,15.0,43,0.00,,,-99.99,0.000000,,2013-03-10 03:22:00,
2013-03-09 20:32:00,32.0,12.0,-100.00,North,0,7.0,15.0,43,0.00,,,-99.99,0.000000,,2013-03-10 03:32:00,
2013-03-09 20:42:00,32.0,12.0,-100.00,North,0,7.0,15.0,43,0.00,,,-99.99,0.000000,,2013-03-10 03:42:00,
2013-03-09 20:52:00,32.0,12.0,-100.00,North,0,7.0,15.0,43,0.00,,,-99.99,0.000000,,2013-03-10 03:52:00,
2013-03-09 21:21:00,32.0,13.0,-100.00,North,354,8.0,21.0,45,0.00,,,0.00,0.000000,,2013-03-10 04:21:00,
2013-03-09 21:32:00,32.0,13.0,-100.00,North,354,8.0,21.0,45,0.00,,,0.00,0.000000,,2013-03-10 04:32:00,
2013-03-09 21:42:00,32.0,13.0,-100.00,North,354,8.0,21.0,45,0.00,,,0.00,0.000000,,2013-03-10 04:42:00,
2013-03-09 21:52:00,32.0,13.0,-100.00,North,354,8.0,21.0,45,0.00,,,0.00,0.000000,,2013-03-10 04:52:00,
2013-03-09 22:22:00,31.0,13.0,-100.00,NNW,342,7.0,22.0,46,0.00,,,0.00,0.000000,,2013-03-10 05:22:00,
2013-03-09 22:31:00,31.0,13.0,-100.00,NNW,342,7.0,22.0,46,0.00,,,0.00,0.000000,,2013-03-10 05:31:00,
2013-03-09 22:42:00,31.0,13.0,-100.00,NNW,342,7.0,22.0,46,0.00,,,0.00,0.000000,,2013-03-10 05:42:00,
2013-03-09 22:52:00,31.0,13.0,-100.00,NNW,342,7.0,22.0,46,0.00,,,0.00,0.000000,,2013-03-10 05:52:00,
2013-03-09 23:22:00,29.0,14.0,-100.00,NNW,329,5.0,14.0,52,0.00,,,0.00,0.000000,,2013-03-10 06:22:00,
2013-03-09 23:32:00,29.0,14.0,-100.00,NNW,329,5.0,14.0,52,0.00,,,0.00,0.000000,,2013-03-10 06:32:00,
2013-03-09 23:42:00,29.0,14.0,-100.00,NNW,329,5.0,14.0,52,0.00,,,0.00,0.000000,,2013-03-10 06:42:00,
2013-03-09 23:51:00,29.0,14.0,-100.00,NNW,329,5.0,14.0,52,0.00,,,0.00,0.000000,,2013-03-10 06:51:00,